METAR Data
IDs: Format: Raw Decoded Include TAF

Data at: 1333 UTC 24 Jan 2021

METAR for:KSPB (Scappoose Ind Airpar, OR, US)
Text:KSPB 241253Z AUTO 00000KT 9SM BKN028 OVC037 02/02 A2988 RMK AO2 SLP119 T00220017
Temperature: 2.2°C ( 36°F)
Dewpoint: 1.7°C ( 35°F) [RH = 96%]
Pressure (altimeter):29.88 inches Hg (1011.9 mb) [Sea level pressure: 1011.9 mb]
Winds:calm
Visibility: 9 sm ( 14 km)
Ceiling:2800 feet AGL
Clouds: broken clouds at 2800 feet AGL, overcast cloud deck at 3700 feet AGL
QC Flag:automated observation with no human augmentation